Time;durP1;ratioP1;P1;durP2;ratioP2;P2;SDS_P1;SDS_P2;PMS_P1;PMS_P2;Temp;Humidity;BMP_temperature;BMP_pressure;BME280_temperature;BME280_humidity;BME280_pressure;Samples;Min_cycle;Max_cycle;Signal;HPM_P1;HPM_P2
2022/10/26 04:30:08;;;;;;;9.05;1.80;;;16.30;84.70;;;;;;6108467;23;20075;31
2022/10/26 04:32:34;;;;;;;9.32;1.52;;;16.20;84.90;;;;;;4961457;28;20138;-81
2022/10/26 04:34:59;;;;;;;9.02;1.75;;;16.30;84.80;;;;;;4956395;29;20074;-85
2022/10/26 04:37:46;;;;;;;10.63;1.73;;;16.30;84.90;;;;;;4950179;29;20028;-84
2022/10/26 04:40:12;;;;;;;10.88;1.92;;;16.20;84.90;;;;;;4937567;29;20107;-87
2022/10/26 04:42:42;;;;;;;12.60;1.60;;;16.30;84.90;;;;;;4936450;29;20067;-84
2022/10/26 04:45:08;;;;;;;8.70;1.58;;;16.30;84.90;;;;;;4936282;29;20051;-81
2022/10/26 04:47:34;;;;;;;12.10;2.50;;;16.30;84.80;;;;;;4937546;29;20054;-89
2022/10/26 04:50:00;;;;;;;6.35;1.27;;;16.30;84.80;;;;;;4937062;29;20102;-85
2022/10/26 04:52:25;;;;;;;9.77;1.85;;;16.30;84.80;;;;;;4949746;29;20058;-83
2022/10/26 04:54:51;;;;;;;7.25;1.70;;;16.30;84.70;;;;;;4951329;29;20024;-82
2022/10/26 04:57:17;;;;;;;5.78;1.45;;;16.30;84.60;;;;;;4936129;29;20039;-84
2022/10/26 04:59:43;;;;;;;9.35;1.75;;;16.30;84.70;;;;;;4937336;29;20390;-83
2022/10/26 05:02:08;;;;;;;16.05;2.20;;;16.20;84.70;;;;;;4950719;28;20038;-82
2022/10/26 05:04:34;;;;;;;8.27;1.42;;;16.20;84.70;;;;;;4938824;29;20441;-82
2022/10/26 05:06:59;;;;;;;13.55;1.45;;;16.20;84.70;;;;;;4948840;29;20035;-82
2022/10/26 05:09:25;;;;;;;13.07;1.63;;;16.30;84.60;;;;;;4950404;29;20558;-83
2022/10/26 05:11:51;;;;;;;15.40;2.25;;;16.20;84.70;;;;;;4953414;29;20031;-81
2022/10/26 05:14:16;;;;;;;11.60;2.25;;;16.30;84.70;;;;;;4939539;29;20028;-81
2022/10/26 05:16:43;;;;;;;13.85;1.75;;;16.20;84.70;;;;;;4940258;29;20042;-81
2022/10/26 05:19:09;;;;;;;5.85;1.42;;;16.20;84.70;;;;;;4948712;29;20111;-84
2022/10/26 05:21:35;;;;;;;10.43;2.42;;;16.20;84.70;;;;;;4957068;29;20126;-83
2022/10/26 05:24:01;;;;;;;16.45;2.00;;;16.20;84.70;;;;;;4945368;29;20039;-84
2022/10/26 05:26:27;;;;;;;9.95;1.90;;;16.20;84.80;;;;;;4940685;29;20024;-83
2022/10/26 05:28:55;;;;;;;10.98;1.70;;;16.20;84.80;;;;;;4940782;29;20389;-82
2022/10/26 05:31:21;;;;;;;10.45;1.73;;;16.20;85.00;;;;;;4939478;29;20055;-83
2022/10/26 05:33:50;;;;;;;8.18;1.52;;;16.20;84.80;;;;;;4939083;29;20027;-83
2022/10/26 05:36:19;;;;;;;8.30;1.47;;;16.20;84.90;;;;;;4943809;29;20042;-83
2022/10/26 05:38:46;;;;;;;16.52;1.75;;;16.20;84.90;;;;;;4960294;29;20038;-83
2022/10/26 05:41:11;;;;;;;6.93;1.83;;;16.20;84.90;;;;;;4960216;29;20027;-83
2022/10/26 05:43:38;;;;;;;13.90;2.45;;;16.20;84.90;;;;;;4941569;29;20478;-83
2022/10/26 05:46:06;;;;;;;9.07;2.17;;;16.10;85.00;;;;;;4941060;29;20463;-83
2022/10/26 05:48:32;;;;;;;13.15;2.15;;;16.20;85.00;;;;;;4940774;29;20102;-83
2022/10/26 05:50:59;;;;;;;10.68;2.30;;;16.20;84.90;;;;;;4942497;29;20068;-83
2022/10/26 05:53:25;;;;;;;11.85;1.83;;;16.20;84.70;;;;;;4959820;29;20038;-83
2022/10/26 05:55:51;;;;;;;11.07;2.70;;;16.20;84.80;;;;;;4958688;28;20019;-83
2022/10/26 05:58:17;;;;;;;9.95;1.85;;;16.20;84.80;;;;;;4950693;29;20083;-83
2022/10/26 06:00:52;;;;;;;10.32;1.80;;;16.30;84.80;;;;;;4940703;29;20038;-83
2022/10/26 06:03:40;;;;;;;7.43;1.88;;;16.20;84.90;;;;;;4939239;29;20032;-83
2022/10/26 06:06:10;;;;;;;8.73;1.02;;;16.30;84.80;;;;;;4919029;29;20043;-83
2022/10/26 06:08:56;;;;;;;9.63;1.88;;;16.30;84.80;;;;;;4959255;29;20039;-83
2022/10/26 06:11:22;;;;;;;8.95;1.55;;;16.30;84.80;;;;;;4969464;28;20031;-85
2022/10/26 06:13:48;;;;;;;6.32;1.23;;;16.30;84.90;;;;;;4949997;29;20118;-83
2022/10/26 06:16:19;;;;;;;7.45;1.52;;;16.30;84.80;;;;;;4936389;29;20060;-83
2022/10/26 06:18:55;;;;;;;14.40;1.73;;;16.30;84.70;;;;;;4966263;28;20041;-84
2022/10/26 06:21:59;;;;;;;7.32;1.50;;;16.30;84.50;;;;;;4955591;29;20046;-83
2022/10/26 06:24:41;;;;;;;8.98;1.83;;;16.30;84.50;;;;;;4955744;29;20106;-83
2022/10/26 06:27:30;;;;;;;9.90;1.60;;;16.30;84.40;;;;;;4947787;28;20055;-83
2022/10/26 06:30:13;;;;;;;6.88;1.80;;;16.30;84.30;;;;;;4957699;29;20023;-83
2022/10/26 06:32:42;;;;;;;5.82;2.10;;;16.40;84.40;;;;;;4956094;29;20086;-83
2022/10/26 06:35:20;;;;;;;7.45;1.55;;;16.40;84.40;;;;;;4958154;29;20031;-83
2022/10/26 06:37:47;;;;;;;6.28;1.33;;;16.40;84.30;;;;;;4962847;28;20049;-83
2022/10/26 06:40:15;;;;;;;10.77;1.70;;;16.40;84.30;;;;;;4950832;28;20392;-83
2022/10/26 06:43:08;;;;;;;9.50;1.45;;;16.40;84.30;;;;;;4955128;29;20031;-83
2022/10/26 06:45:35;;;;;;;10.93;1.73;;;16.40;84.20;;;;;;4957670;29;20102;-83
2022/10/26 06:48:15;;;;;;;15.10;1.80;;;16.40;84.20;;;;;;4957982;29;20390;-83
2022/10/26 06:50:56;;;;;;;8.98;2.10;;;16.30;84.30;;;;;;4941887;28;20023;-83
2022/10/26 06:53:54;;;;;;;7.70;1.45;;;16.30;84.30;;;;;;4947399;29;20131;-83
2022/10/26 06:56:20;;;;;;;10.52;1.73;;;16.30;84.20;;;;;;4956833;28;20031;-82
2022/10/26 06:58:48;;;;;;;9.18;1.38;;;16.30;84.30;;;;;;4947547;28;20030;-84
2022/10/26 07:01:14;;;;;;;6.00;1.40;;;16.30;84.30;;;;;;4965240;28;20457;-83
2022/10/26 07:03:40;;;;;;;10.40;1.77;;;16.30;84.30;;;;;;4948148;28;20110;-83
2022/10/26 07:06:07;;;;;;;6.45;1.42;;;16.30;84.30;;;;;;4950636;28;20023;-84
2022/10/26 07:08:33;;;;;;;10.20;1.55;;;16.30;84.20;;;;;;4945026;29;20051;-84
2022/10/26 07:10:59;;;;;;;9.57;1.85;;;16.30;84.30;;;;;;4953954;28;20137;-83
2022/10/26 07:13:24;;;;;;;7.00;1.10;;;16.30;84.30;;;;;;4945542;29;20450;-83
2022/10/26 07:15:50;;;;;;;5.38;1.25;;;16.30;84.30;;;;;;4957090;29;20128;-83
2022/10/26 07:18:15;;;;;;;10.40;2.10;;;16.30;84.30;;;;;;4947550;28;20027;-84
2022/10/26 07:20:41;;;;;;;10.85;2.03;;;16.30;84.30;;;;;;4948744;28;20081;-84
2022/10/26 07:23:11;;;;;;;9.02;1.77;;;16.30;84.30;;;;;;4956022;28;20382;-83
2022/10/26 07:25:39;;;;;;;5.68;1.50;;;16.30;84.30;;;;;;4936689;29;20031;-84
2022/10/26 07:28:07;;;;;;;14.65;1.85;;;16.30;84.20;;;;;;4951615;28;20027;-85
2022/10/26 07:30:33;;;;;;;11.65;1.90;;;16.30;84.20;;;;;;4942124;29;20027;-87
2022/10/26 07:33:07;;;;;;;9.95;1.80;;;16.40;84.20;;;;;;4945722;28;20038;-88
2022/10/26 07:35:33;;;;;;;12.70;1.85;;;16.30;84.40;;;;;;4941005;28;20031;-86
2022/10/26 07:37:59;;;;;;;14.30;1.98;;;16.40;84.40;;;;;;4955885;29;20082;-86
2022/10/26 07:40:26;;;;;;;9.40;1.75;;;16.40;84.40;;;;;;4958182;28;20038;-86
2022/10/26 07:42:51;;;;;;;10.30;1.92;;;16.40;84.30;;;;;;4940195;29;20058;-87
2022/10/26 07:45:18;;;;;;;10.32;1.73;;;16.40;84.30;;;;;;4942610;29;20351;-86
2022/10/26 07:47:45;;;;;;;12.30;1.60;;;16.50;84.20;;;;;;4956484;29;20504;-86
2022/10/26 07:50:11;;;;;;;8.85;1.42;;;16.50;84.10;;;;;;4936303;29;20038;-88
2022/10/26 07:52:37;;;;;;;6.43;1.40;;;16.50;84.10;;;;;;4931983;28;20028;-87
2022/10/26 07:55:04;;;;;;;4.40;1.40;;;16.60;84.20;;;;;;4939818;28;20028;-89
2022/10/26 07:57:32;;;;;;;7.57;1.80;;;16.50;84.10;;;;;;4940758;28;20067;-88
2022/10/26 07:59:58;;;;;;;6.13;1.42;;;16.60;84.10;;;;;;4949809;28;20482;-88
2022/10/26 08:02:23;;;;;;;11.23;1.83;;;16.60;84.10;;;;;;4953730;28;20082;-88
2022/10/26 08:04:49;;;;;;;7.78;1.30;;;16.60;84.00;;;;;;4943320;29;20031;-87
2022/10/26 08:07:15;;;;;;;6.75;1.38;;;16.70;84.20;;;;;;4955138;28;20026;-91
2022/10/26 08:09:41;;;;;;;6.32;1.40;;;16.70;84.20;;;;;;4963991;28;20020;-90
2022/10/26 08:12:07;;;;;;;14.05;1.90;;;16.70;84.20;;;;;;4940592;29;20387;-89
2022/10/26 08:14:32;;;;;;;8.32;1.98;;;16.80;84.10;;;;;;4941025;29;20055;-91
2022/10/26 08:16:58;;;;;;;10.52;1.30;;;16.80;84.20;;;;;;4956389;29;20091;-90
2022/10/26 08:19:23;;;;;;;11.70;2.03;;;16.80;84.20;;;;;;4936239;29;20113;-92
2022/10/26 08:21:49;;;;;;;8.82;1.75;;;16.80;84.20;;;;;;4941367;29;20537;-91
2022/10/26 08:24:15;;;;;;;5.72;1.60;;;16.90;84.20;;;;;;4941619;29;20119;-93
2022/10/26 08:26:41;;;;;;;8.85;1.67;;;17.10;84.00;;;;;;4944075;29;20118;-92
2022/10/26 08:29:07;;;;;;;8.05;1.77;;;17.10;83.90;;;;;;4938516;29;20027;-90
2022/10/26 08:31:33;;;;;;;7.43;1.60;;;17.20;83.90;;;;;;4935001;29;20095;-89
2022/10/26 08:33:58;;;;;;;11.10;1.92;;;17.30;83.70;;;;;;4956272;28;20039;-89
2022/10/26 08:36:26;;;;;;;5.60;1.50;;;17.30;83.80;;;;;;4940869;28;20031;-90
2022/10/26 08:38:52;;;;;;;4.80;1.95;;;17.30;83.70;;;;;;4944911;29;20059;-90
2022/10/26 08:41:32;;;;;;;11.95;2.40;;;17.40;83.60;;;;;;4939166;29;20035;-89
2022/10/26 08:44:02;;;;;;;7.07;1.40;;;17.50;83.60;;;;;;4947744;29;20051;-91
2022/10/26 08:46:43;;;;;;;6.47;1.65;;;17.60;83.40;;;;;;4957111;29;20106;-89
2022/10/26 08:49:17;;;;;;;8.10;1.50;;;17.70;83.40;;;;;;4943403;29;20478;-90
2022/10/26 08:51:43;;;;;;;4.60;1.20;;;17.70;83.10;;;;;;4959384;29;20158;-90
2022/10/26 08:54:27;;;;;;;8.02;1.65;;;17.70;83.20;;;;;;4944046;29;20064;-91
2022/10/26 08:56:57;;;;;;;13.50;1.73;;;17.80;83.30;;;;;;4960639;29;20034;-89
2022/10/26 08:59:37;;;;;;;7.32;1.40;;;17.80;83.20;;;;;;4944824;29;20046;-91
2022/10/26 09:02:03;;;;;;;;;;;17.80;83.20;;;;;;4952490;28;20382;-89
2022/10/26 09:04:30;;;;;;;6.88;1.25;;;17.80;83.20;;;;;;4942712;29;19932;-90
2022/10/26 09:07:17;;;;;;;11.05;1.85;;;17.80;83.20;;;;;;4969750;28;20027;-90
2022/10/26 09:10:16;;;;;;;11.95;1.70;;;17.80;83.20;;;;;;4950848;29;20032;-89
2022/10/26 09:13:11;;;;;;;7.07;1.70;;;17.80;83.30;;;;;;4964928;28;20030;-91
2022/10/26 09:15:50;;;;;;;6.43;1.90;;;17.80;83.60;;;;;;4975600;28;20020;-91
2022/10/26 09:18:37;;;;;;;7.57;1.50;;;17.80;83.70;;;;;;4944249;29;20564;-88
2022/10/26 09:21:10;;;;;;;8.27;1.58;;;17.80;83.70;;;;;;4947627;29;20048;-89
2022/10/26 09:23:46;;;;;;;5.95;1.20;;;17.80;83.70;;;;;;4952002;29;20038;-91
2022/10/26 09:26:28;;;;;;;6.60;1.38;;;17.80;83.60;;;;;;4948984;29;20494;-90
2022/10/26 09:28:56;;;;;;;7.50;2.38;;;17.80;83.70;;;;;;4944134;29;20122;-90
2022/10/26 09:31:23;;;;;;;8.88;1.50;;;17.80;83.80;;;;;;4942641;29;20043;-88
2022/10/26 09:33:50;;;;;;;7.28;1.48;;;17.70;84.30;;;;;;4961112;29;20035;-89
2022/10/26 09:36:21;;;;;;;7.57;1.30;;;17.70;84.70;;;;;;4942791;29;20031;-88
2022/10/26 09:38:57;;;;;;;5.68;1.20;;;17.70;85.00;;;;;;4950462;29;20023;-89
2022/10/26 09:41:27;;;;;;;7.60;1.58;;;17.70;85.10;;;;;;4932544;29;20134;-89
2022/10/26 09:44:28;;;;;;;6.25;1.80;;;17.70;85.40;;;;;;4943493;29;20034;-88
2022/10/26 09:47:30;;;;;;;7.80;1.42;;;17.60;86.00;;;;;;4936820;29;20019;-87
2022/10/26 09:50:05;;;;;;;8.15;0.98;;;17.60;86.10;;;;;;4938754;29;20038;-88
2022/10/26 09:52:31;;;;;;;7.88;1.73;;;17.60;86.20;;;;;;4942392;29;20032;-89
2022/10/26 09:54:56;;;;;;;5.88;1.42;;;17.70;86.10;;;;;;4956556;29;20027;-90
2022/10/26 09:57:23;;;;;;;4.03;1.25;;;17.70;86.10;;;;;;4940211;29;20482;-90
2022/10/26 09:59:51;;;;;;;6.03;1.40;;;17.60;86.00;;;;;;4960719;29;20058;-89
2022/10/26 10:02:43;;;;;;;2.85;1.20;;;17.60;86.20;;;;;;4942630;29;20028;-88
2022/10/26 10:05:33;;;;;;;1.92;1.00;;;17.60;86.10;;;;;;4953825;29;20487;-88
2022/10/26 10:08:26;;;;;;;5.15;1.40;;;17.60;86.10;;;;;;4958857;28;20442;-88
2022/10/26 10:11:04;;;;;;;4.28;1.25;;;17.50;86.40;;;;;;4930231;28;20026;-88
2022/10/26 10:13:37;;;;;;;7.28;1.33;;;17.60;86.50;;;;;;4947533;29;20044;-91
2022/10/26 10:16:23;;;;;;;6.38;1.45;;;17.70;86.40;;;;;;4941063;29;20019;-89
2022/10/26 10:18:58;;;;;;;7.10;1.30;;;18.00;86.20;;;;;;4945230;29;20509;-89
2022/10/26 10:21:37;;;;;;;4.03;1.52;;;18.20;85.80;;;;;;4942243;29;20063;-90
2022/10/26 10:24:30;;;;;;;5.18;1.20;;;18.30;85.60;;;;;;4956712;28;20375;-89
2022/10/26 10:27:02;;;;;;;5.75;1.10;;;18.40;85.30;;;;;;4952359;29;20031;-89
2022/10/26 10:29:30;;;;;;;2.08;0.95;;;18.50;84.90;;;;;;4960221;29;20027;-88
2022/10/26 10:31:58;;;;;;;3.15;1.27;;;18.60;84.80;;;;;;4938849;29;20053;-88
2022/10/26 10:34:24;;;;;;;6.65;1.60;;;18.60;84.60;;;;;;4954582;29;20035;-89
2022/10/26 10:36:50;;;;;;;6.32;1.13;;;18.50;84.50;;;;;;4942692;29;20078;-90
2022/10/26 10:39:30;;;;;;;3.10;0.90;;;18.60;84.40;;;;;;4941961;29;20027;-88
2022/10/26 10:41:56;;;;;;;7.63;1.42;;;18.60;84.60;;;;;;4939250;29;20027;-88
2022/10/26 10:44:28;;;;;;;5.72;1.05;;;18.70;84.70;;;;;;4952799;29;20390;-88
2022/10/26 10:47:06;;;;;;;5.10;1.10;;;18.70;84.70;;;;;;4945764;28;20015;-88
2022/10/26 10:49:32;;;;;;;5.03;1.08;;;18.80;84.60;;;;;;4944541;28;20023;-89
2022/10/26 10:51:59;;;;;;;5.75;1.40;;;18.80;84.50;;;;;;4942325;29;20023;-89
2022/10/26 10:54:33;;;;;;;6.57;1.40;;;18.80;84.70;;;;;;4942349;29;20497;-89
2022/10/26 10:57:18;;;;;;;5.75;1.27;;;18.80;84.70;;;;;;4939134;29;20119;-88
2022/10/26 10:59:50;;;;;;;6.78;1.88;;;18.80;84.80;;;;;;4952745;28;20023;-88
2022/10/26 11:02:46;;;;;;;5.15;2.15;;;18.70;84.70;;;;;;4952071;29;20362;-88
2022/10/26 11:05:24;;;;;;;9.18;2.35;;;18.70;84.60;;;;;;4964536;28;20113;-89
2022/10/26 11:08:07;;;;;;;5.28;2.45;;;18.60;84.80;;;;;;4949932;29;20035;-88
2022/10/26 11:10:41;;;;;;;7.70;2.92;;;18.60;85.10;;;;;;4962374;28;20025;-89
2022/10/26 11:13:25;;;;;;;7.85;3.25;;;18.60;85.30;;;;;;4966726;28;20027;-90
2022/10/26 11:15:58;;;;;;;9.68;3.15;;;18.50;85.30;;;;;;4943819;29;20042;-87
2022/10/26 11:18:39;;;;;;;6.03;2.47;;;18.40;85.80;;;;;;4951642;29;20541;-89
2022/10/26 11:21:27;;;;;;;6.15;1.98;;;18.30;86.00;;;;;;4949594;29;20126;-87
2022/10/26 11:24:09;;;;;;;3.78;1.58;;;18.30;86.00;;;;;;4935340;29;20078;-89
2022/10/26 11:26:54;;;;;;;5.63;1.88;;;18.30;86.00;;;;;;4958912;29;20019;-89
2022/10/26 11:29:54;;;;;;;4.15;1.40;;;18.30;86.10;;;;;;4941358;29;20031;-87
2022/10/26 11:32:24;;;;;;;5.90;1.05;;;18.30;86.00;;;;;;4937932;29;20051;-89
2022/10/26 11:34:57;;;;;;;10.60;1.50;;;18.50;86.10;;;;;;4945316;29;20083;-87
2022/10/26 11:37:38;;;;;;;7.85;1.23;;;18.50;86.00;;;;;;4938246;29;20087;-89
2022/10/26 11:40:23;;;;;;;7.47;1.55;;;18.50;85.80;;;;;;4940757;29;20032;-88
2022/10/26 11:43:01;;;;;;;7.82;1.65;;;18.50;85.70;;;;;;4967536;28;20027;-89
2022/10/26 11:46:07;;;;;;;6.07;1.25;;;18.40;85.70;;;;;;4949193;28;20032;-89
2022/10/26 11:49:08;;;;;;;6.35;1.50;;;18.40;85.80;;;;;;4955752;29;20063;-89
2022/10/26 11:51:52;;;;;;;6.88;1.25;;;18.50;85.80;;;;;;4952594;29;20119;-89
2022/10/26 11:54:35;;;;;;;2.42;1.25;;;18.80;85.70;;;;;;4928725;29;20083;-87
2022/10/26 11:57:02;;;;;;;4.82;1.55;;;19.00;85.60;;;;;;4955284;28;20406;-87
2022/10/26 11:59:32;;;;;;;4.45;1.80;;;19.10;85.40;;;;;;4958140;29;20098;-88
2022/10/26 12:02:19;;;;;;;3.47;0.98;;;19.20;84.90;;;;;;4939385;29;20047;-90
2022/10/26 12:04:51;;;;;;;5.18;1.20;;;19.20;84.90;;;;;;4956563;29;20027;-89
2022/10/26 12:07:30;;;;;;;3.17;1.10;;;19.20;84.60;;;;;;4940267;29;20028;-88
2022/10/26 12:09:57;;;;;;;4.75;1.50;;;19.20;84.60;;;;;;4936703;29;20031;-88
2022/10/26 12:12:37;;;;;;;3.28;1.13;;;19.20;84.90;;;;;;4938916;29;20039;-87
2022/10/26 12:15:31;;;;;;;5.78;1.40;;;19.30;85.00;;;;;;4957364;28;20031;-86
2022/10/26 12:18:11;;;;;;;5.70;1.33;;;19.30;84.80;;;;;;4947034;29;20023;-88
2022/10/26 12:20:49;;;;;;;3.47;1.15;;;19.30;85.10;;;;;;4954888;29;20032;-88
2022/10/26 12:23:15;;;;;;;8.57;1.67;;;19.20;85.10;;;;;;4956716;28;20035;-89
2022/10/26 12:25:41;;;;;;;4.45;1.58;;;19.20;85.20;;;;;;4939458;29;20113;-87
2022/10/26 12:28:35;;;;;;;7.60;1.80;;;19.30;85.20;;;;;;4940196;29;20115;-88
2022/10/26 12:31:35;;;;;;;2.95;1.27;;;19.40;85.30;;;;;;4951238;29;20032;-89
2022/10/26 12:34:02;;;;;;;2.67;1.45;;;19.50;84.90;;;;;;4950920;29;20454;-88
2022/10/26 12:36:46;;;;;;;10.98;1.77;;;19.50;84.80;;;;;;4940271;29;20067;-89
2022/10/26 12:39:39;;;;;;;10.85;1.60;;;19.50;84.70;;;;;;4928769;28;20039;-87
2022/10/26 12:42:05;;;;;;;5.47;1.35;;;19.40;85.10;;;;;;4951400;28;20027;-88
2022/10/26 12:44:39;;;;;;;5.05;1.50;;;19.40;85.00;;;;;;4948235;28;20046;-89
2022/10/26 12:47:05;;;;;;;5.35;1.88;;;19.50;84.80;;;;;;4935357;28;20024;-88
2022/10/26 12:50:05;;;;;;;3.53;1.50;;;19.50;84.80;;;;;;4946589;28;20390;-89
2022/10/26 12:52:44;;;;;;;4.65;1.80;;;19.50;84.80;;;;;;4949211;29;20062;-88
2022/10/26 12:55:18;;;;;;;4.55;1.40;;;19.50;84.80;;;;;;4953608;29;20590;-88
2022/10/26 12:58:00;;;;;;;11.90;2.38;;;19.50;84.80;;;;;;4952698;29;20028;-89
2022/10/26 13:00:26;;;;;;;5.70;1.48;;;19.50;84.90;;;;;;4953169;28;20035;-88
2022/10/26 13:03:14;;;;;;;4.15;1.27;;;19.60;84.90;;;;;;4937499;28;20061;-90
2022/10/26 13:06:22;;;;;;;8.10;1.58;;;19.60;84.90;;;;;;4930186;28;20063;-90
2022/10/26 13:08:51;;;;;;;8.88;1.58;;;19.70;84.70;;;;;;4949442;29;20031;-89
2022/10/26 13:11:26;;;;;;;6.20;1.40;;;19.80;84.40;;;;;;4949913;28;20035;-87
2022/10/26 13:13:57;;;;;;;3.70;1.77;;;19.80;84.30;;;;;;4949404;28;20652;-86
2022/10/26 13:16:25;;;;;;;5.82;1.60;;;19.90;84.40;;;;;;4955453;28;20063;-86
2022/10/26 13:18:51;;;;;;;5.43;1.40;;;19.90;84.40;;;;;;4937674;29;20038;-86
2022/10/26 13:21:20;;;;;;;9.13;1.95;;;20.00;84.30;;;;;;4952779;29;20039;-87
2022/10/26 13:23:52;;;;;;;6.65;1.33;;;20.00;84.00;;;;;;4949516;28;20030;-85
2022/10/26 13:26:23;;;;;;;7.32;1.58;;;20.00;83.70;;;;;;4942270;29;20027;-87
2022/10/26 13:28:51;;;;;;;4.95;1.67;;;20.10;83.70;;;;;;4944015;29;20063;-85
2022/10/26 13:31:23;;;;;;;4.97;2.00;;;20.10;83.70;;;;;;4942401;29;20055;-85
2022/10/26 13:33:51;;;;;;;5.47;1.55;;;20.00;83.30;;;;;;4960078;29;20027;-86
2022/10/26 13:36:44;;;;;;;6.57;1.50;;;20.00;83.50;;;;;;4947120;28;20042;-86
2022/10/26 13:39:19;;;;;;;7.55;2.22;;;20.00;83.30;;;;;;4959633;29;20035;-86
2022/10/26 13:41:48;;;;;;;8.95;1.67;;;20.10;83.30;;;;;;4959773;29;20034;-85
2022/10/26 13:44:24;;;;;;;3.13;1.63;;;20.00;83.30;;;;;;4959293;29;20143;-85
2022/10/26 13:47:02;;;;;;;4.32;1.02;;;20.20;83.10;;;;;;4954704;28;20055;-86
2022/10/26 13:49:33;;;;;;;10.40;2.47;;;20.30;83.40;;;;;;4938978;28;20023;-85
2022/10/26 13:52:03;;;;;;;8.43;2.78;;;20.30;83.20;;;;;;4946981;28;20075;-85
2022/10/26 13:54:54;;;;;;;6.53;1.55;;;20.40;83.30;;;;;;4958913;29;20027;-85
2022/10/26 13:57:25;;;;;;;7.07;1.10;;;20.40;83.30;;;;;;4942966;29;20502;-84
2022/10/26 13:59:51;;;;;;;7.85;1.58;;;20.40;83.40;;;;;;4957610;29;20038;-85
2022/10/26 14:02:25;;;;;;;4.65;1.73;;;20.30;83.20;;;;;;4955901;29;20038;-87
2022/10/26 14:05:04;;;;;;;8.82;1.40;;;20.30;82.50;;;;;;4938473;29;20237;-86
2022/10/26 14:07:47;;;;;;;7.00;1.52;;;20.30;82.60;;;;;;4959468;29;20019;-85
2022/10/26 14:10:37;;;;;;;5.75;1.50;;;20.30;82.60;;;;;;4950336;29;20027;-85
2022/10/26 14:13:07;;;;;;;;;;;20.50;81.70;;;;;;4943617;28;20030;-86
2022/10/26 14:15:34;;;;;;;6.53;1.67;;;20.50;81.40;;;;;;4947821;28;19910;-85
2022/10/26 14:18:02;;;;;;;4.78;1.42;;;20.50;81.50;;;;;;4941724;29;20031;-84
2022/10/26 14:20:30;;;;;;;5.70;1.55;;;20.60;81.60;;;;;;4939663;29;20047;-85
2022/10/26 14:22:55;;;;;;;5.03;1.95;;;20.70;81.90;;;;;;4940516;29;20023;-85
2022/10/26 14:25:28;;;;;;;5.05;1.48;;;20.70;81.90;;;;;;4958436;29;20034;-85
2022/10/26 14:27:54;;;;;;;10.25;1.90;;;20.70;81.30;;;;;;4941495;29;20386;-85
2022/10/26 14:30:23;;;;;;;6.65;1.75;;;20.80;81.30;;;;;;4950917;29;20027;-84
2022/10/26 14:32:49;;;;;;;5.00;1.55;;;20.80;80.50;;;;;;4957166;29;20073;-85
2022/10/26 14:35:15;;;;;;;4.00;1.83;;;20.70;80.00;;;;;;4949811;29;20600;-85
2022/10/26 14:37:58;;;;;;;4.28;1.38;;;20.60;79.50;;;;;;4957184;28;20034;-85
2022/10/26 14:40:27;;;;;;;6.63;1.58;;;20.50;79.50;;;;;;4951933;29;20035;-84
2022/10/26 14:42:56;;;;;;;9.25;1.92;;;20.50;79.90;;;;;;4958620;29;20023;-84
2022/10/26 14:45:35;;;;;;;5.05;1.88;;;20.50;79.50;;;;;;4940889;29;20031;-85
2022/10/26 14:48:03;;;;;;;4.15;1.88;;;20.60;79.60;;;;;;4938477;29;20033;-84
2022/10/26 14:50:30;;;;;;;5.43;1.60;;;20.60;79.60;;;;;;4956992;29;20027;-85
2022/10/26 14:53:00;;;;;;;10.93;1.98;;;20.70;79.60;;;;;;4958089;28;20019;-85
2022/10/26 14:55:26;;;;;;;10.07;2.65;;;20.70;78.50;;;;;;4941112;29;20031;-84
2022/10/26 14:58:14;;;;;;;3.45;1.50;;;20.70;78.60;;;;;;4958485;29;20039;-85
2022/10/26 15:00:41;;;;;;;9.98;2.17;;;20.70;78.30;;;;;;4949034;29;20380;-85
2022/10/26 15:03:15;;;;;;;8.35;1.80;;;20.60;78.30;;;;;;4940764;28;20075;-86
2022/10/26 15:05:41;;;;;;;10.13;2.25;;;20.60;77.40;;;;;;4940673;29;20086;-84
2022/10/26 15:08:58;;;;;;;8.23;1.90;;;20.50;77.60;;;;;;4959258;28;20078;-84
2022/10/26 15:11:28;;;;;;;6.93;1.33;;;20.50;77.80;;;;;;4927241;28;20031;-85
2022/10/26 15:13:55;;;;;;;9.15;2.22;;;20.60;78.50;;;;;;4942815;29;20515;-86
2022/10/26 15:16:27;;;;;;;6.25;1.60;;;20.50;78.00;;;;;;4952459;28;20087;-85
2022/10/26 15:19:08;;;;;;;6.65;1.67;;;20.60;77.90;;;;;;4941665;29;20509;-85
2022/10/26 15:21:43;;;;;;;5.97;1.58;;;20.60;78.20;;;;;;4958131;29;20453;-86
2022/10/26 15:24:34;;;;;;;9.45;2.75;;;20.50;78.10;;;;;;4941142;29;20034;-86
2022/10/26 15:27:01;;;;;;;9.88;1.88;;;20.40;78.00;;;;;;4947718;28;20045;-85
2022/10/26 15:29:39;;;;;;;5.63;1.40;;;20.40;77.70;;;;;;4958085;28;20023;-85
2022/10/26 15:32:19;;;;;;;6.15;2.03;;;20.40;77.80;;;;;;4958138;29;20055;-85
2022/10/26 15:35:24;;;;;;;6.30;1.70;;;20.40;78.20;;;;;;4953805;29;20084;-84
2022/10/26 15:37:52;;;;;;;5.97;1.70;;;20.40;78.20;;;;;;4936393;29;20414;-84
2022/10/26 15:40:18;;;;;;;7.68;1.73;;;20.40;77.90;;;;;;4940606;29;20132;-85
2022/10/26 15:42:48;;;;;;;9.30;2.35;;;20.40;77.90;;;;;;4943734;28;20063;-85
2022/10/26 15:45:20;;;;;;;5.22;1.55;;;20.40;78.00;;;;;;4937836;28;20024;-85
2022/10/26 15:47:47;;;;;;;6.35;2.28;;;20.40;77.90;;;;;;4941696;28;20032;-85
2022/10/26 15:50:17;;;;;;;4.72;1.45;;;20.40;78.00;;;;;;4936595;28;20032;-84
2022/10/26 15:52:43;;;;;;;4.57;1.60;;;20.30;77.30;;;;;;4944462;28;20023;-84
2022/10/26 15:55:09;;;;;;;5.45;1.30;;;20.40;77.20;;;;;;4944963;28;20026;-84
2022/10/26 15:57:37;;;;;;;6.18;1.65;;;20.40;77.40;;;;;;4937900;28;20091;-84
2022/10/26 16:00:04;;;;;;;4.53;1.42;;;20.30;77.30;;;;;;4942249;28;20032;-83
2022/10/26 16:02:31;;;;;;;8.60;1.77;;;20.30;77.80;;;;;;4940384;28;20023;-83
2022/10/26 16:04:57;;;;;;;6.50;1.58;;;20.30;77.60;;;;;;4950444;28;20035;-83
2022/10/26 16:07:25;;;;;;;5.15;1.42;;;20.30;77.70;;;;;;4925958;28;20028;-84
2022/10/26 16:09:51;;;;;;;5.10;1.48;;;20.30;78.10;;;;;;4930235;28;20025;-85
2022/10/26 16:12:17;;;;;;;7.65;1.58;;;20.30;78.20;;;;;;4943290;28;20028;-85
2022/10/26 16:14:42;;;;;;;7.63;1.58;;;20.20;78.40;;;;;;4937286;28;20027;-85
2022/10/26 16:17:08;;;;;;;4.63;1.55;;;20.10;78.30;;;;;;4937111;28;20039;-85
2022/10/26 16:19:34;;;;;;;6.05;2.05;;;20.10;78.40;;;;;;4938748;28;20056;-85
2022/10/26 16:22:00;;;;;;;8.40;2.80;;;20.00;78.30;;;;;;4940265;28;20035;-84
2022/10/26 16:24:29;;;;;;;6.72;1.90;;;20.00;78.50;;;;;;4942431;28;20036;-85
2022/10/26 16:26:55;;;;;;;6.95;1.65;;;20.00;78.70;;;;;;4949557;28;20509;-85
2022/10/26 16:29:21;;;;;;;3.92;2.00;;;19.90;78.90;;;;;;4955545;29;20024;-86
2022/10/26 16:31:47;;;;;;;8.80;1.90;;;19.90;78.70;;;;;;4939456;28;20127;-88
2022/10/26 16:34:13;;;;;;;7.60;2.00;;;19.80;78.80;;;;;;4944744;28;20039;-86
2022/10/26 16:36:39;;;;;;;7.35;2.60;;;19.80;78.70;;;;;;4962228;28;20031;-84
2022/10/26 16:39:06;;;;;;;11.25;2.30;;;19.80;78.90;;;;;;4884060;29;20037;-84
2022/10/26 16:41:32;;;;;;;6.07;2.13;;;19.70;79.10;;;;;;4944713;29;20030;-84
2022/10/26 16:43:58;;;;;;;4.95;2.13;;;19.70;79.10;;;;;;4952429;29;20126;-84
2022/10/26 16:46:24;;;;;;;5.10;2.15;;;19.70;79.20;;;;;;4955438;29;20050;-84
2022/10/26 16:48:51;;;;;;;7.80;2.25;;;19.70;79.30;;;;;;4954451;29;20027;-84
2022/10/26 16:51:26;;;;;;;6.95;2.47;;;19.60;79.40;;;;;;4949726;28;20034;-84
2022/10/26 16:53:54;;;;;;;7.22;2.17;;;19.50;79.50;;;;;;4944790;28;20509;-83
2022/10/26 16:56:23;;;;;;;8.35;2.42;;;19.50;79.60;;;;;;4953838;28;20512;-81
2022/10/26 16:58:49;;;;;;;5.95;2.17;;;19.50;79.80;;;;;;4953977;28;20034;-85
2022/10/26 17:01:17;;;;;;;8.85;2.38;;;19.40;79.80;;;;;;4959705;28;20110;-85
2022/10/26 17:03:46;;;;;;;6.65;2.30;;;19.50;79.70;;;;;;4952444;29;20023;-84
2022/10/26 17:06:11;;;;;;;6.38;2.42;;;19.40;80.00;;;;;;4960152;29;20062;-84
2022/10/26 17:08:37;;;;;;;8.75;3.00;;;19.40;80.10;;;;;;4941567;29;20035;-84
2022/10/26 17:11:04;;;;;;;8.45;2.85;;;19.30;80.20;;;;;;4940049;29;20090;-84
2022/10/26 17:13:30;;;;;;;8.25;2.70;;;19.30;80.20;;;;;;4942599;29;20023;-85
2022/10/26 17:16:26;;;;;;;10.82;2.42;;;19.30;80.40;;;;;;4940904;29;20553;-85
2022/10/26 17:18:53;;;;;;;9.23;3.67;;;19.20;80.50;;;;;;4933577;28;20049;-85
2022/10/26 17:21:27;;;;;;;9.38;2.72;;;19.20;80.60;;;;;;4956874;28;20047;-85
2022/10/26 17:23:53;;;;;;;5.63;2.60;;;19.20;80.50;;;;;;4955663;28;20054;-85
2022/10/26 17:26:21;;;;;;;9.10;2.58;;;19.20;80.70;;;;;;4959974;28;20031;-85
2022/10/26 17:28:53;;;;;;;6.57;2.88;;;19.10;80.80;;;;;;4947448;28;20015;-84
2022/10/26 17:31:19;;;;;;;9.45;2.97;;;19.10;81.20;;;;;;4978923;28;20054;-83
2022/10/26 17:33:49;;;;;;;8.63;3.00;;;19.10;81.10;;;;;;4945585;29;20633;-88
2022/10/26 17:36:18;;;;;;;7.80;2.42;;;19.00;81.20;;;;;;4954590;29;20035;-88
2022/10/26 17:38:45;;;;;;;12.93;2.95;;;19.00;81.30;;;;;;4952727;28;20063;-88
2022/10/26 17:41:13;;;;;;;11.38;3.17;;;19.00;81.40;;;;;;4945632;28;20033;-88
2022/10/26 17:43:40;;;;;;;6.72;2.50;;;18.90;81.40;;;;;;4937113;29;20086;-88